31.0F
Current conditions from King Hill
Updated every 5 minutes
 
  Monday November 18, 2019

Observations for Westford

Westford

44° 37' 38"N, 73° 02' 29"W, Elevation 850 ft.
Eastern Time

Hourly observations for the last 72 hours

Date Time Temperature (°F) Humi-
dity

(%)
Wind
(mph)
Pressure Rain (in)
Air Dew 6 Hour 1 Hr 3 Hr 6 Hr Day
Alt
(in)
Sea
Level

(mb)
Max Min
18 11:00 30.8 21.5 68 N 1 G 7 29.95 1014.1 0.00
18 10:00 27.8 20.3 73 NNE 1 G 5 29.99 1015.5 0.00
18 09:00 24.0 19.0 81 NNE 1 G 6 30.00 1016.1 0.00
18 08:00 20.7 17.4 87 NNE 0 G 5 30.03 1016.9 0.00
18 07:00 17.4 14.7 20.1 16.3 89 Calm 30.03 1017.1 0.00
18 06:00 16.3 13.9 90 Calm 30.05 1017.6 0.00
18 05:00 17.1 14.9 91 Calm 30.05 1017.7 0.00
18 04:00 17.9 15.7 91 Calm 30.08 1018.6 0.00
18 03:00 17.1 14.4 89 Calm 30.09 1019.1 0.00
18 02:00 18.6 15.9 89 Calm 30.11 1019.7 0.00
18 01:00 20.1 17.4 25.8 19.5 89 Calm 30.13 1020.3 0.00
18 00:00 22.6 17.7 81 SSE 0 G 1 30.16 1021.3 0.00
17 23:00 25.5 18.7 75 S 3 G 8 30.18 1022.2 0.00
17 22:00 21.1 12.2 68 SSE 0 G 3 30.20 1022.8 0.00
17 21:00 21.0 11.8 67 Calm 30.22 1023.3 0.00
17 20:00 23.1 11.6 61 SE 0 G 2 30.24 1024.2 0.00
17 19:00 22.3 9.4 35.5 22.3 57 Calm 30.27 1025.0 0.00
17 18:00 24.0 4.2 42 SE 1 G 5 30.28 1025.5 0.00
17 17:00 24.9 11.0 55 Calm 30.29 1025.7 0.00
17 16:00 32.7 7.4 34 S 1 G 4 30.30 1026.0 0.00
17 15:00 35.0 5.2 28 S 2 G 8 30.31 1026.4 0.00
17 14:00 35.1 5.2 28 S 3 G 8 30.32 1026.8 0.00
17 13:00 34.0 5.1 34.1 3.4 29 S 5 G 10 30.35 1027.7 0.00
17 12:00 31.5 5.0 32 S 4 G 11 30.38 1028.9 0.00
17 11:00 25.2 10.0 52 NNE 0 G 2 30.42 1030.2 0.00
17 10:00 19.8 7.0 57 N 1 G 4 30.44 1030.8 0.00
17 09:00 11.7 4.7 73 Calm 30.46 1031.4 0.00
17 08:00 5.0 0.7 82 Calm 30.47 1031.9 0.00
17 07:00 3.5 -0.5 4.1 1.8 83 Calm 30.48 1032.0 0.00
17 06:00 3.1 -0.6 84 Calm 30.48 1032.1 0.00
17 05:00 2.0 -1.5 85 Calm 30.48 1032.1 0.00
17 04:00 3.2 -0.5 84 Calm 30.49 1032.5 0.00
17 03:00 3.2 -0.3 85 Calm 30.50 1032.8 0.00
17 02:00 4.0 0.2 84 Calm 30.51 1033.3 0.00
17 01:00 3.3 -0.4 9.5 3.2 84 NNW 0 G 2 30.52 1033.5 0.00
17 00:00 4.5 0.5 83 Calm 30.54 1034.2 0.00
16 23:00 5.8 0.7 79 Calm 30.55 1034.6 0.00
16 22:00 6.6 2.0 81 NNW 0 G 1 30.57 1035.1 0.00
16 21:00 7.8 2.6 79 NNW 0 G 2 30.57 1035.3 0.00
16 20:00 9.4 3.4 76 Calm 30.58 1035.4 0.00
16 19:00 9.2 2.6 24.0 9.2 74 Calm 30.57 1035.3 0.00
16 18:00 12.6 3.7 67 Calm 30.57 1035.3 0.00
16 17:00 14.0 3.4 62 NNW 0 G 2 30.56 1035.0 0.00
16 16:00 19.6 3.5 49 NW 0 G 6 30.57 1035.1 0.00
16 15:00 21.4 5.2 49 N 2 G 6 30.55 1034.7 0.00
16 14:00 23.3 4.6 44 NW 1 G 5 30.56 1034.8 0.00
16 13:00 22.4 5.7 22.6 7.7 48 W 5 G 9 30.57 1035.3 0.00
16 12:00 20.6 6.2 53 W 1 G 4 30.59 1035.9 0.00
16 11:00 18.7 7.1 60 SW 1 G 7 30.60 1036.3 0.00
16 10:00 16.8 7.4 66 NNW 1 G 5 30.61 1036.6 0.00
16 09:00 11.2 6.5 81 NNE 1 G 3 30.59 1036.1 0.00
16 08:00 8.0 3.6 82 Calm 30.58 1035.5 0.00
16 07:00 9.1 5.0 16.0 8.1 83 N 0 G 4 30.56 1034.8 0.00
16 06:00 8.7 4.9 84 N 0 G 4 30.52 1033.5 0.00
16 05:00 8.5 4.1 82 NNW 0 G 4 30.49 1032.4 0.00
16 04:00 8.8 2.2 74 NNW 0 G 2 30.46 1031.6 0.00
16 03:00 9.8 2.9 73 N 0 G 3 30.43 1030.5 0.00
16 02:00 13.1 3.9 66 NNW 1 G 9 30.42 1030.1 0.00
16 01:00 16.0 7.6 28.8 16.0 69 WNW 2 G 12 30.40 1029.4 0.00
16 00:00 18.1 9.3 68 W 2 G 10 30.35 1028.0 0.00
15 23:00 19.8 9.9 65 W 4 G 19 30.32 1026.6 0.00
15 22:00 22.7 10.5 59 W 2 G 13 30.26 1024.8 0.00
15 21:00 25.7 17.3 70 WNW 9 G 23 30.21 1023.1 0.00
15 20:00 28.4 19.5 69 W 6 G 23 30.16 1021.3 0.00
15 19:00 28.7 22.4 34.6 28.7 77 W 6 G 14 30.14 1020.7 0.00
15 18:00 29.0 24.8 84 WNW 7 G 18 30.11 1019.6 0.00
15 17:00 34.5 29.6 82 SW 5 G 14 30.02 1016.8 0.00
15 16:00 33.8 30.1 86 SSW 8 G 15 30.00 1016.1 0.00
15 15:00 33.7 30.8 89 SSW 6 G 12 29.99 1015.7 0.00
15 14:00 33.3 31.2 92 SW 4 G 9 29.99 1015.6 0.00
15 13:00 32.6 30.5 33.3 31.6 92 SW 4 G 11 30.00 1015.8 0.00
15 12:00 32.3 30.5 93 SSW 4 G 10 30.01 1016.2 0.00

Data generated by WxSolution Version 1.9.1.7, Build 2018.11.24.


 
 
Current Radar Loop:

Copyright © WestfordWeather.net 2007-2019. All rights reserved.